Share

Alcova, WY (82620)

Natrona County International (KCPR) Elev 5289 ft | 42.90 °N, 106.47 °W | Change Station

Current weather conditions updated 41 minutes ago

Clear
Clear
56 °F
Feels Like 56 °F
N
15
Wind Variable Wind from SW
Sunrise 6:21 AM
Sunset 7:52 PM
Moon Waning Gibbous

Tomorrow is forecast to be Much Cooler than today.

Pressure 29.71 in
Visibility 10.0 miles
Clouds Clear
Dew Point 32 °F
Humidity 40%
Rainfall 0.00 in
Snow Depth Not available.
UV 0 out of 16
Pollen 11.60 out of 12
Air Quality Not available.
Flu Activity Sporadic
METAR KCPR 190153Z 23013KT 10SM CLR 13/00 A2983 RMK AO2 PK WND 24030/0124 SLP061 T01330000

More Conditions Fewer Conditions

Pressure 29.71 in
Visibility 10.0 miles
Clouds Clear
Dew Point 32 °F
Humidity 40%
Rainfall 0.00 in
Snow Depth Not available.
UV 0 out of 16
Pollen 11.60 out of 12
Air Quality Not available.
Flu Activity Sporadic
METAR KCPR 190153Z 23013KT 10SM CLR 13/00 A2983 RMK AO2 PK WND 24030/0124 SLP061 T01330000

More Conditions Fewer Conditions

10-Day Weather Forecast

Almanac

Astronomy

Apr. 18, 2014 Rise Set
Actual Time 6:21 AM MDT 7:52 PM MDT
Civil Twilight 5:52 AM MDT 8:22 PM MDT
Nautical Twilight 5:16 AM MDT 8:58 PM MDT
Astronomical Twilight 4:38 AM MDT 9:36 PM MDT
Moon 11:43 PM MDT (4/18) 8:43 AM MDT (4/18)
Length of Visible Light 14h 30m
Length of Day
13h 31m
Tomorrow will be 2m 42s longer.
Waning Gibbous, 84% of the Moon is Illuminated
Today
Waning Gibbous
Apr 22
Last Quarter
Apr 29
New
May 6
First Quarter
May 14
Full

Today's Extremes

State Highs State Lows

Community

  • Sunset Silhouettes
    Sunset Silhouettes
  • FL sunset Perico Isle
    FL sunset Perico Isle
  • Cloudy spring view
    Cloudy spring view
  • Old barn
    Old barn
  • What's for Lunch?
    What's for Lunch?

WunderPhotos

Upload Photos

1,702,594 photos uploaded!

WunderBlogs® & News

Nearby

Snow Depth

Station Depth Elevation
Casper Mountain 51 in 7850 ft
Reno Hill 58 in 8500 ft
Laprele Creek 25 in 8375 ft
Windy Peak 26 in 7900 ft
Grave Springs 45 in 8550 ft

Coastal Water Temperatures

Place Temperature
No Stations Reporting

Earthquake Activity

City Distance Mag. Time & Date
No recent earthquake activity has been reported nearby.
Minimum magnitude displayed is 2.5.

Nearby Weather Stations

Station Location Temp. Dew Point Humidity Wind Precip. Elev Updated Type
HADS SWEETWATER RIVER NEAR ALCOVA 25W WY, Alcova, WY 54 °F - - North  at  - 0.00 in / hr 5918 ft 7:45 PM MDT MADIS

Show More Stations Show Fewer Stations

What do you think?

We're not finished. Please let us know what you like, what you don't like, and what you are still missing.